AirNav   Air Wisconsin pilot careers
 
 365 users online  

9A0 Lumpkin County-Wimpys Airport
Dahlonega, Georgia, USA

GOING TO DAHLONEGA?


FAA INFORMATION EFFECTIVE 01 FEBRUARY 2018

Location

FAA Identifier: 9A0
Lat/Long: 34-34-59.3000N / 084-01-11.9000W
34-34.988333N / 084-01.198333W
34.5831389 / -84.0199722
(estimated)
Elevation: 1311 ft. / 400 m (estimated)
Variation: 03W (1985)
From city: 3 miles NW of DAHLONEGA, GA
Time zone: UTC -5 (UTC -4 during Daylight Saving Time)
Zip code: 30533

Airport Operations

Airport use: Open to the public
Activation date: 08/1956
Control tower: no
ARTCC: ATLANTA CENTER
FSS: MACON FLIGHT SERVICE STATION
NOTAMs facility: MCN (NOTAM-D service available)
Attendance: UNATNDD
Wind indicator: yes
Segmented circle: no
Lights: RDO CTL

Airport Communications

CTAF: 122.9
WX AWOS-3 at DZJ (16 nm N): 119.325 (706-745-9271)

Nearby radio navigation aids

VOR radial/distance  VOR name  Freq  Var
HRSr193/22.2HARRIS VORTAC109.8000E
ODFr259/36.3FOOTHILLS VORTAC113.4000E

 
NDB name  Hdg/Dist  Freq  Var  ID
FLOWERY BRANCH349/23.536503WFKV ..-. -.- ...-
CHERO054/30.541505WDJD -.. .--- -..
COMMERCE328/39.924406WDDA -.. -.. .-

Airport Services

Fuel available: 100LL
24 HOUR SELF SERVE WITH CREDIT CARD.
Parking: tiedowns
Airframe service: NONE
Powerplant service: NONE
Bottled oxygen: NONE
Bulk oxygen: NONE

Runway Information

Runway 15/33

Dimensions: 3090 x 50 ft. / 942 x 15 m
Surface: asphalt, in good condition
Weight bearing capacity: 
Single wheel: 12.0
Runway edge lights: non-standard
NSTD LIRL THE LENGTH OF THE RY. NO THLD LIGHTS. LIRL OTS INDEFLY.
RUNWAY 15  RUNWAY 33
Latitude: 34-35.210333N34-34.767167N
Longitude: 084-01.350167W084-01.046000W
Gradient: 2.0%2.0%
Traffic pattern: leftleft
Displaced threshold: 754 ft.695 ft.
Markings: basic, in good conditionbasic, in good condition
Obstructions: 137 ft. trees, 1236 ft. from runway, 225 ft. left of centerline, 8:1 slope to clear
8:1 APCH SLOPE TO DSPLCD THLD, TREES 728FT OUT & 200FT RIGHT.
22 ft. trees, 310 ft. from runway, 50 ft. right of centerline, 5:1 slope to clear
APCH SLOPE 25:1 TO DSPLCD THLD, TREELINE 2,325 FROM DSPLCD THLD.

Airport Ownership and Management from official FAA records

Ownership: Publicly-owned
Owner: LUMPKIN COUNTY
99 COURTHOUSE HILL
DAHLONEGA, GA 30533
Phone 706-864-3742
Manager: LARRY REITER, PUBLIC WORKS DIR
25 SHORT STREET, SUITE 10
DAHLONEGA, GA 30533
Phone 706-864-6894
AIRPORT ADDRESS: 1682 CAMP WAHSEGA RD

Airport Operational Statistics

Aircraft based on the field: 27
Single engine airplanes: 25
Multi engine airplanes: 1
Helicopters: 1
    
Aircraft operations: avg 107/week *
54% local general aviation
36% transient general aviation
11% military
* for 12-month period ending 31 December 2016

Additional Remarks

ARPT CLSD TO ACFT AT NIGHT, DAYTIME USE ONLY.
DEER & WILDLIFE ON OR INVOF ARPT.

Instrument Procedures

There are no published instrument procedures at 9A0.

Some nearby airports with instrument procedures:

KDZJ - Blairsville Airport (16 nm N)
KGVL - Lee Gilmer Memorial Airport (21 nm SE)
KJZP - Pickens County Airport (23 nm W)
KAJR - Habersham County Airport (23 nm E)
KCNI - Cherokee County Airport (26 nm SW)
 
Loc | Ops | Rwys | IFR | FBO | Links
Com | Nav | Svcs | Stats | Notes

AirNav Hotels Sweepstakes
 
Area around 9A0 (Lumpkin County-Wimpys Airport)
 
Road maps at: MapQuest Bing Google
 
Aerial photo
WARNING: Photo may not be current or correct
Aerial photo of 9A0 (Lumpkin County-Wimpys Airport)
Photo by Jerry Morris
Photo taken 17-Sep-2015
looking south.

Do you have a better or more recent aerial photo of Lumpkin County-Wimpys Airport that you would like to share? If so, please send us your photo.

 
Sectional chart

 
Airport distance calculator
Flying to Lumpkin County-Wimpys Airport? Find the distance to fly.

From to 9A0

Sunrise and sunset
Times for 23-Feb-2018
 Local
(UTC-5)
 Zulu
(UTC)
Morning civil twilight06:4811:48
Sunrise07:1412:14
Sunset18:2523:25
Evening civil twilight18:5123:51

Current date and time
Zulu (UTC)  23-Feb-2018 07:14:33
Local (UTC-5)  23-Feb-2018 02:14:33
 
METAR
KDZJ 
16nm N 
230655Z AUTO 00000KT 10SM OVC023 15/14 A3043 RMK AO2 T01550137
KGVL 
21nm SE 
230653Z AUTO 00000KT 10SM CLR 16/15 A3042 RMK AO2 SLP289 T01610150
KJZP 
23nm W 
230655Z AUTO 14003KT 10SM CLR 17/16 A3042 RMK AO2 T01680157 PNO
KAJR 
23nm E 
230655Z AUTO 00000KT 5SM BR CLR 15/15 A3042 RMK AO2 T01510145
K49A 
25nm W 
230655Z AUTO 15004KT 10SM CLR 18/15 A3042 RMK AO2 T01810146
KCNI 
26nm SW 
230655Z AUTO 00000KT 7SM CLR 16/16 A3040 RMK AO2
TAF
KPDK 
44nm S 
230534Z 2306/2406 15003KT P6SM SCT100 FM230900 15004KT 5SM BR SCT015 SCT050 FM231000 12006KT 4SM BR SCT005 BKN050 TEMPO 2312/2315 13007KT BKN020 FM231600 15008KT P6SM BKN030 FM231800 17009KT P6SM BKN045 BKN100 FM240000 16007KT P6SM SCT040 BKN120 FM240500 13004KT P6SM OVC100
KRYY 
45nm SW 
230534Z 2306/2406 17004KT P6SM SCT100 FM230900 15004KT 5SM BR SCT015 SCT050 FM231000 12006KT 4SM BR SCT005 BKN050 TEMPO 2312/2315 13007KT BKN020 FM231600 15008KT P6SM BKN030 FM231800 17009KT P6SM BKN045 BKN100 FM240000 16007KT P6SM SCT040 BKN120 FM240500 13004KT P6SM OVC100
KMGE 
47nm SW 
230600Z 2306/2412 15006KT 9999 FEW030 QNH3036INS BECMG 2314/2315 14006KT 9999 SCT020 QNH3021INS BECMG 2411/2412 18006KT 8000 -SHRA OVC012 QNH3020INS TX27/2321Z TN15/2312Z
NOTAMs
Click for the latest NOTAMs
NOTAMs are issued by the DoD/FAA and will open in a separate window not controlled by AirNav.

 

 
 

FBO, Fuel Providers, and Aircraft Ground Support

  
 Business Name 
 
 Contact 
 
 Services / Description 
 
Fuel Prices
 
Comments
  
Lumpkin County-Wimpy's Airport 706-864-6894
no information available

If you are affiliated with Lumpkin County-Wimpy's Airport and would like to show here your services, contact info, web link, logo, and more, click here
100LL
SS $4.15 
 Updated 12-Feb-2018
 
   write
SS=Self service
Update Fuel Prices
 

Would you like to see your business listed on this page?

 If your business provides an interesting product or service to pilots, flight crews, aircraft, or users of the Lumpkin County-Wimpys Airport, you should consider listing it here.  To start the listing process, click on the button below
 
Add a business
 

Other Pages about Lumpkin County-Wimpys Airport

Update a link
 
Copyright © AirNav, LLC. All rights reserved. Privacy Policy  Contact